Time;durP1;ratioP1;P1;durP2;ratioP2;P2;SDS_P1;SDS_P2;PMS_P1;PMS_P2;Temp;Humidity;BMP_temperature;BMP_pressure;BME280_temperature;BME280_humidity;BME280_pressure;Samples;Min_cycle;Max_cycle;Signal;HPM_P1;HPM_P2
2023/07/07 00:00:09;;;;;;;0.82;0.82;;;;;;;;;;5045797;28;20211;-60
2023/07/07 00:02:36;;;;;;;1.08;0.70;;;;;;;;;;5046583;28;20214;-60
2023/07/07 00:05:03;;;;;;;0.85;0.70;;;;;;;;;;5047628;28;20433;-60
2023/07/07 00:07:31;;;;;;;0.90;0.90;;;;;;;;;;5047953;28;20215;-60
2023/07/07 00:09:58;;;;;;;0.80;0.80;;;;;;;;;;5048243;28;20232;-60
2023/07/07 00:12:25;;;;;;;0.80;0.80;;;;;;;;;;5048376;28;20665;-60
2023/07/07 00:14:53;;;;;;;0.60;0.60;;;;;;;;;;5048183;28;20216;-60
2023/07/07 00:17:20;;;;;;;0.88;0.88;;;;;;;;;;5047682;28;20211;-60
2023/07/07 00:19:47;;;;;;;0.73;0.70;;;;;;;;;;5048229;28;20207;-60
2023/07/07 00:22:14;;;;;;;0.70;0.70;;;;;;;;;;5048144;28;20215;-60
2023/07/07 00:24:41;;;;;;;0.63;0.63;;;;;;;;;;5047834;28;20211;-60
2023/07/07 00:27:08;;;;;;;0.68;0.68;;;;;;;;;;5048046;28;20210;-60
2023/07/07 00:29:35;;;;;;;1.75;0.77;;;;;;;;;;5047492;28;20305;-60
2023/07/07 00:32:04;;;;;;;0.68;0.68;;;;;;;;;;5045888;28;20212;-60
2023/07/07 00:34:31;;;;;;;1.75;0.60;;;;;;;;;;5047824;28;20605;-60
2023/07/07 00:36:58;;;;;;;0.50;0.50;;;;;;;;;;5047267;28;20211;-60
2023/07/07 00:39:25;;;;;;;1.05;0.63;;;;;;;;;;5047172;28;20713;-60
2023/07/07 00:41:52;;;;;;;0.80;0.80;;;;;;;;;;5047474;28;20208;-60
2023/07/07 00:44:19;;;;;;;0.88;0.70;;;;;;;;;;5047592;28;20242;-60
2023/07/07 00:46:46;;;;;;;0.63;0.63;;;;;;;;;;5047518;28;20211;-60
2023/07/07 00:49:18;;;;;;;0.68;0.65;;;;;;;;;;5047419;28;20219;-60
2023/07/07 00:51:48;;;;;;;0.80;0.80;;;;;;;;;;5044846;28;20650;-60
2023/07/07 00:54:16;;;;;;;0.73;0.73;;;;;;;;;;5047957;28;20258;-60
2023/07/07 00:56:44;;;;;;;0.95;0.80;;;;;;;;;;5047420;28;20219;-60
2023/07/07 00:59:14;;;;;;;0.70;0.70;;;;;;;;;;5044312;28;20689;-60
2023/07/07 01:01:41;;;;;;;0.75;0.75;;;;;;;;;;5045064;28;20215;-60
2023/07/07 01:04:10;;;;;;;3.92;0.90;;;;;;;;;;5044851;28;20559;-60
2023/07/07 01:06:40;;;;;;;0.95;0.70;;;;;;;;;;5045423;28;20199;-60
2023/07/07 01:09:09;;;;;;;0.93;0.80;;;;;;;;;;5046989;28;20615;-60
2023/07/07 01:11:36;;;;;;;0.63;0.63;;;;;;;;;;5047004;28;20335;-60
2023/07/07 01:14:04;;;;;;;0.63;0.63;;;;;;;;;;5046960;28;20208;-60
2023/07/07 01:16:38;;;;;;;0.63;0.63;;;;;;;;;;5046080;28;20211;-61
2023/07/07 01:19:15;;;;;;;0.50;0.50;;;;;;;;;;5047041;28;20208;-59
2023/07/07 01:21:50;;;;;;;0.98;0.90;;;;;;;;;;5047153;28;20670;-60
2023/07/07 01:24:25;;;;;;;1.92;0.65;;;;;;;;;;5046959;28;20226;-60
2023/07/07 01:27:07;;;;;;;0.70;0.70;;;;;;;;;;5047042;28;20211;-60
2023/07/07 01:29:49;;;;;;;1.60;0.90;;;;;;;;;;5025937;28;20227;-61
2023/07/07 01:32:20;;;;;;;2.15;0.70;;;;;;;;;;5047257;28;20215;-60
2023/07/07 01:34:47;;;;;;;0.70;0.70;;;;;;;;;;5047025;28;20214;-60
2023/07/07 01:37:15;;;;;;;0.70;0.70;;;;;;;;;;5046047;28;20211;-60
2023/07/07 01:39:43;;;;;;;0.85;0.85;;;;;;;;;;5046732;28;20210;-60
2023/07/07 01:42:14;;;;;;;0.93;0.90;;;;;;;;;;5046508;28;20260;-60
2023/07/07 01:44:44;;;;;;;0.73;0.70;;;;;;;;;;5046704;28;20239;-60
2023/07/07 01:47:14;;;;;;;0.98;0.80;;;;;;;;;;5046736;28;20216;-59
2023/07/07 01:49:44;;;;;;;1.13;0.63;;;;;;;;;;5046677;28;20236;-60
2023/07/07 01:52:14;;;;;;;1.45;0.90;;;;;;;;;;5046657;28;20620;-60
2023/07/07 01:54:44;;;;;;;1.20;0.80;;;;;;;;;;5045701;28;20207;-60
2023/07/07 01:57:11;;;;;;;1.45;0.88;;;;;;;;;;5046518;28;20208;-60
2023/07/07 01:59:40;;;;;;;0.95;0.90;;;;;;;;;;5046588;28;20207;-60
2023/07/07 02:02:08;;;;;;;1.58;0.93;;;;;;;;;;5046595;28;20635;-60
2023/07/07 02:04:35;;;;;;;0.75;0.75;;;;;;;;;;5046663;28;20215;-60
2023/07/07 02:07:03;;;;;;;0.65;0.60;;;;;;;;;;5046291;28;20209;-60
2023/07/07 02:09:30;;;;;;;2.85;1.13;;;;;;;;;;5045601;28;20236;-60
2023/07/07 02:11:57;;;;;;;0.73;0.73;;;;;;;;;;5046361;28;20616;-60
2023/07/07 02:14:24;;;;;;;0.85;0.80;;;;;;;;;;5046293;28;20223;-60
2023/07/07 02:16:51;;;;;;;0.60;0.60;;;;;;;;;;5046146;28;20222;-61
2023/07/07 02:19:18;;;;;;;1.05;1.00;;;;;;;;;;5046087;28;20215;-60
2023/07/07 02:21:45;;;;;;;2.28;0.70;;;;;;;;;;5046577;28;20207;-60
2023/07/07 02:24:14;;;;;;;0.57;0.57;;;;;;;;;;5045972;28;20578;-60
2023/07/07 02:26:41;;;;;;;0.68;0.68;;;;;;;;;;5046507;28;20208;-60
2023/07/07 02:29:08;;;;;;;3.28;0.82;;;;;;;;;;5046532;28;20612;-60
2023/07/07 02:31:35;;;;;;;0.77;0.77;;;;;;;;;;5049830;28;20625;-60
2023/07/07 02:34:02;;;;;;;0.50;0.50;;;;;;;;;;5050041;28;20207;-60
2023/07/07 02:36:29;;;;;;;0.70;0.70;;;;;;;;;;5050056;28;20314;-60
2023/07/07 02:38:56;;;;;;;0.88;0.85;;;;;;;;;;5049933;28;20234;-60
2023/07/07 02:41:25;;;;;;;1.02;0.80;;;;;;;;;;5050147;28;20338;-60
2023/07/07 02:43:52;;;;;;;1.00;0.73;;;;;;;;;;5048632;28;20256;-59
2023/07/07 02:46:19;;;;;;;0.88;0.85;;;;;;;;;;5049959;28;20619;-60
2023/07/07 02:48:46;;;;;;;0.85;0.85;;;;;;;;;;5049546;28;20204;-60
2023/07/07 02:51:13;;;;;;;0.70;0.70;;;;;;;;;;5050001;28;20238;-60
2023/07/07 02:53:40;;;;;;;1.00;0.98;;;;;;;;;;5049918;28;20211;-59
2023/07/07 02:56:07;;;;;;;0.85;0.85;;;;;;;;;;5049106;28;20234;-60
2023/07/07 02:58:36;;;;;;;2.83;0.82;;;;;;;;;;5049522;28;20878;-60
2023/07/07 03:01:09;;;;;;;3.15;0.50;;;;;;;;;;5049012;28;20204;-60
2023/07/07 03:03:37;;;;;;;0.65;0.65;;;;;;;;;;5049712;28;20265;-60
2023/07/07 03:06:04;;;;;;;0.80;0.80;;;;;;;;;;5049701;28;20250;-60
2023/07/07 03:08:31;;;;;;;0.70;0.70;;;;;;;;;;5048373;28;20323;-60
2023/07/07 03:10:58;;;;;;;1.13;0.60;;;;;;;;;;5048423;28;20226;-60
2023/07/07 03:13:25;;;;;;;0.65;0.65;;;;;;;;;;5049436;28;20208;-60
2023/07/07 03:15:53;;;;;;;0.80;0.80;;;;;;;;;;5050108;28;20203;-60
2023/07/07 03:18:20;;;;;;;0.88;0.88;;;;;;;;;;5049859;28;20289;-60
2023/07/07 03:20:48;;;;;;;3.15;0.70;;;;;;;;;;5048888;28;20203;-60
2023/07/07 03:23:15;;;;;;;0.80;0.80;;;;;;;;;;5049100;28;20226;-60
2023/07/07 03:25:42;;;;;;;1.10;1.00;;;;;;;;;;5048920;28;20200;-60
2023/07/07 03:28:09;;;;;;;0.65;0.65;;;;;;;;;;5048866;28;20838;-60
2023/07/07 03:30:36;;;;;;;1.50;0.82;;;;;;;;;;5048876;28;20232;-60
2023/07/07 03:33:05;;;;;;;2.05;0.85;;;;;;;;;;5047841;28;20278;-59
2023/07/07 03:35:32;;;;;;;1.52;0.73;;;;;;;;;;5036426;28;20262;-59
2023/07/07 03:37:59;;;;;;;1.02;1.02;;;;;;;;;;5037204;28;20569;-60
2023/07/07 03:40:26;;;;;;;1.95;0.77;;;;;;;;;;5045657;28;20207;-59
2023/07/07 03:42:53;;;;;;;2.50;0.90;;;;;;;;;;5047292;28;20629;-60
2023/07/07 03:45:20;;;;;;;1.25;1.00;;;;;;;;;;5048366;28;20234;-59
2023/07/07 03:47:47;;;;;;;0.70;0.70;;;;;;;;;;5048002;28;20291;-60
2023/07/07 03:50:15;;;;;;;0.95;0.88;;;;;;;;;;5048791;28;20924;-60
2023/07/07 03:52:42;;;;;;;3.60;1.10;;;;;;;;;;5048639;28;20215;-59
2023/07/07 03:55:10;;;;;;;1.10;1.00;;;;;;;;;;5048172;28;20261;-60
2023/07/07 03:57:37;;;;;;;0.73;0.73;;;;;;;;;;5046591;28;20254;-59
2023/07/07 04:00:04;;;;;;;0.77;0.68;;;;;;;;;;5048208;28;20230;-60
2023/07/07 04:02:32;;;;;;;2.75;0.80;;;;;;;;;;5039073;28;20208;-60
2023/07/07 04:04:59;;;;;;;0.60;0.60;;;;;;;;;;5048552;28;20208;-60
2023/07/07 04:07:28;;;;;;;0.90;0.90;;;;;;;;;;5048371;28;20674;-59
2023/07/07 04:09:55;;;;;;;0.63;0.63;;;;;;;;;;5048164;28;20721;-60
2023/07/07 04:12:22;;;;;;;0.95;0.95;;;;;;;;;;5048288;28;20346;-60
2023/07/07 04:14:49;;;;;;;1.50;0.88;;;;;;;;;;5048066;28;20261;-60
2023/07/07 04:17:16;;;;;;;0.93;0.88;;;;;;;;;;5048029;28;20215;-60
2023/07/07 04:19:43;;;;;;;0.80;0.80;;;;;;;;;;5047793;28;20602;-60
2023/07/07 04:22:10;;;;;;;0.90;0.82;;;;;;;;;;5048412;28;20208;-60
2023/07/07 04:24:38;;;;;;;0.85;0.85;;;;;;;;;;5046798;28;20701;-60
2023/07/07 04:27:06;;;;;;;0.75;0.75;;;;;;;;;;5047519;28;20219;-60
2023/07/07 04:29:33;;;;;;;0.65;0.65;;;;;;;;;;5047178;28;20232;-60
2023/07/07 04:32:00;;;;;;;0.70;0.70;;;;;;;;;;5048274;28;20218;-60
2023/07/07 04:34:27;;;;;;;0.98;0.85;;;;;;;;;;5048000;28;20222;-60
2023/07/07 04:36:54;;;;;;;1.55;0.85;;;;;;;;;;5047764;28;20227;-59
2023/07/07 04:39:21;;;;;;;5.30;0.90;;;;;;;;;;5047000;28;20211;-60
2023/07/07 04:41:51;;;;;;;1.13;0.95;;;;;;;;;;5047727;28;20725;-60
2023/07/07 04:44:18;;;;;;;3.80;0.85;;;;;;;;;;5047642;28;20250;-59
2023/07/07 04:46:45;;;;;;;1.95;0.98;;;;;;;;;;5044948;28;20203;-59
2023/07/07 04:49:12;;;;;;;0.80;0.80;;;;;;;;;;5046857;28;20215;-60
2023/07/07 04:51:41;;;;;;;1.33;0.80;;;;;;;;;;5046196;28;20227;-60
2023/07/07 04:54:08;;;;;;;0.65;0.65;;;;;;;;;;5046801;28;20212;-59
2023/07/07 04:56:35;;;;;;;0.90;0.80;;;;;;;;;;5046373;28;20216;-60
2023/07/07 04:59:06;;;;;;;1.98;0.70;;;;;;;;;;5046403;28;20206;-59
2023/07/07 05:01:33;;;;;;;0.68;0.68;;;;;;;;;;5037168;28;20219;-60
2023/07/07 05:04:01;;;;;;;0.73;0.73;;;;;;;;;;5040894;28;20918;-60
2023/07/07 05:06:29;;;;;;;0.70;0.70;;;;;;;;;;5040736;28;20196;-60
2023/07/07 05:08:56;;;;;;;0.70;0.70;;;;;;;;;;5036957;28;20213;-60
2023/07/07 05:11:24;;;;;;;1.23;1.10;;;;;;;;;;5033907;28;20234;-60
2023/07/07 05:13:52;;;;;;;1.55;0.85;;;;;;;;;;5046014;28;20222;-60
2023/07/07 05:16:21;;;;;;;1.35;0.85;;;;;;;;;;5047408;28;20269;-60
2023/07/07 05:18:49;;;;;;;0.85;0.85;;;;;;;;;;5047515;28;20218;-60
2023/07/07 05:21:17;;;;;;;0.90;0.90;;;;;;;;;;5031514;28;20236;-60
2023/07/07 05:23:44;;;;;;;0.57;0.57;;;;;;;;;;5025552;28;20669;-60
2023/07/07 05:26:11;;;;;;;0.70;0.70;;;;;;;;;;5036065;28;20212;-61
2023/07/07 05:28:38;;;;;;;0.70;0.70;;;;;;;;;;5043031;28;20203;-60
2023/07/07 05:31:07;;;;;;;0.75;0.75;;;;;;;;;;5046704;28;20219;-60
2023/07/07 05:33:36;;;;;;;0.60;0.60;;;;;;;;;;5046841;28;20235;-60
2023/07/07 05:36:04;;;;;;;0.80;0.80;;;;;;;;;;5046632;28;20208;-60
2023/07/07 05:38:31;;;;;;;0.90;0.70;;;;;;;;;;5046030;28;20207;-60
2023/07/07 05:40:59;;;;;;;0.60;0.60;;;;;;;;;;5043075;28;20665;-61
2023/07/07 05:43:27;;;;;;;0.65;0.60;;;;;;;;;;5037131;28;20250;-60
2023/07/07 05:45:58;;;;;;;1.48;0.60;;;;;;;;;;5046756;28;20239;-60
2023/07/07 05:48:25;;;;;;;0.90;0.90;;;;;;;;;;5046580;28;20200;-60
2023/07/07 05:50:55;;;;;;;0.80;0.80;;;;;;;;;;5037655;28;20234;-60
2023/07/07 05:53:22;;;;;;;1.08;0.80;;;;;;;;;;5032936;28;20199;-60
2023/07/07 05:55:49;;;;;;;0.85;0.80;;;;;;;;;;5045554;28;20196;-60
2023/07/07 05:58:17;;;;;;;0.65;0.65;;;;;;;;;;5044455;28;20204;-62
2023/07/07 06:00:44;;;;;;;0.60;0.60;;;;;;;;;;5046275;28;20572;-59
2023/07/07 06:03:11;;;;;;;0.70;0.70;;;;;;;;;;5046266;28;20214;-60
2023/07/07 06:05:38;;;;;;;0.88;0.80;;;;;;;;;;5049131;28;20203;-59
2023/07/07 06:08:06;;;;;;;1.02;0.90;;;;;;;;;;5050326;28;20617;-60
2023/07/07 06:10:33;;;;;;;0.82;0.82;;;;;;;;;;5050074;28;20215;-60
2023/07/07 06:13:01;;;;;;;0.75;0.75;;;;;;;;;;5050419;28;20747;-59
2023/07/07 06:15:28;;;;;;;0.70;0.70;;;;;;;;;;5048213;28;20298;-60
2023/07/07 06:17:55;;;;;;;0.95;0.93;;;;;;;;;;5050311;28;20223;-61
2023/07/07 06:20:23;;;;;;;1.13;0.60;;;;;;;;;;5050123;28;20195;-59
2023/07/07 06:22:53;;;;;;;0.60;0.60;;;;;;;;;;5050219;28;20214;-60
2023/07/07 06:25:21;;;;;;;0.63;0.63;;;;;;;;;;5049521;28;20208;-60
2023/07/07 06:27:48;;;;;;;0.90;0.90;;;;;;;;;;5049777;28;20700;-60
2023/07/07 06:30:15;;;;;;;0.60;0.60;;;;;;;;;;5049619;28;20709;-59
2023/07/07 06:32:42;;;;;;;0.52;0.52;;;;;;;;;;5048206;28;20211;-59
2023/07/07 06:35:10;;;;;;;1.08;0.70;;;;;;;;;;5048465;28;20234;-60
2023/07/07 06:37:37;;;;;;;0.70;0.70;;;;;;;;;;5048869;28;20253;-59
2023/07/07 06:40:04;;;;;;;0.80;0.80;;;;;;;;;;5050298;28;20208;-59
2023/07/07 06:42:32;;;;;;;1.90;0.50;;;;;;;;;;5050001;28;20235;-59
2023/07/07 06:44:59;;;;;;;0.70;0.70;;;;;;;;;;5050089;28;20239;-61
2023/07/07 06:47:27;;;;;;;0.60;0.60;;;;;;;;;;5049944;28;20208;-60
2023/07/07 06:49:54;;;;;;;0.77;0.77;;;;;;;;;;5049161;28;20306;-61
2023/07/07 06:52:21;;;;;;;0.90;0.90;;;;;;;;;;5049702;28;20297;-61
2023/07/07 06:54:48;;;;;;;2.25;0.60;;;;;;;;;;5045995;28;20203;-60
2023/07/07 06:57:15;;;;;;;2.10;0.70;;;;;;;;;;5040476;28;20269;-60
2023/07/07 06:59:44;;;;;;;2.05;0.80;;;;;;;;;;5044026;28;20204;-60
2023/07/07 07:02:13;;;;;;;0.68;0.68;;;;;;;;;;5048791;28;20204;-60
2023/07/07 07:04:40;;;;;;;0.90;0.82;;;;;;;;;;5049610;28;20303;-60
2023/07/07 07:07:07;;;;;;;0.90;0.90;;;;;;;;;;5049210;28;20239;-62
2023/07/07 07:09:34;;;;;;;1.23;0.80;;;;;;;;;;5039008;28;20208;-62
2023/07/07 07:12:01;;;;;;;0.95;0.90;;;;;;;;;;5049070;28;20246;-61
2023/07/07 07:14:28;;;;;;;1.05;0.80;;;;;;;;;;5048400;28;20200;-60
2023/07/07 07:16:57;;;;;;;1.75;0.63;;;;;;;;;;5048708;28;20203;-60
2023/07/07 07:19:24;;;;;;;0.77;0.77;;;;;;;;;;5048606;28;20207;-60
2023/07/07 07:21:51;;;;;;;1.63;1.10;;;;;;;;;;5048746;28;20207;-61
2023/07/07 07:24:19;;;;;;;0.73;0.73;;;;;;;;;;5048767;28;20218;-62
2023/07/07 07:26:46;;;;;;;0.77;0.77;;;;;;;;;;5048200;28;20208;-62
2023/07/07 07:29:14;;;;;;;2.10;0.77;;;;;;;;;;5048269;28;20211;-62
2023/07/07 07:31:41;;;;;;;0.63;0.63;;;;;;;;;;5048662;28;20243;-62
2023/07/07 07:34:23;;;;;;;0.68;0.68;;;;;;;;;;5048266;28;20207;-61
2023/07/07 07:36:51;;;;;;;0.80;0.80;;;;;;;;;;5048335;28;20208;-62
2023/07/07 07:39:18;;;;;;;1.23;0.70;;;;;;;;;;5043134;28;20223;-62
2023/07/07 07:41:46;;;;;;;0.70;0.70;;;;;;;;;;5048635;28;20203;-63
2023/07/07 07:44:13;;;;;;;1.75;0.80;;;;;;;;;;5047606;28;20235;-62
2023/07/07 07:46:40;;;;;;;1.15;0.80;;;;;;;;;;5047813;28;20207;-62
2023/07/07 07:49:07;;;;;;;0.60;0.60;;;;;;;;;;5047635;28;20582;-62
2023/07/07 07:51:37;;;;;;;0.60;0.60;;;;;;;;;;5048225;28;20224;-62
2023/07/07 07:54:04;;;;;;;4.95;0.70;;;;;;;;;;5048087;28;20208;-62
2023/07/07 07:56:31;;;;;;;0.50;0.50;;;;;;;;;;5048317;28;20204;-63
2023/07/07 07:58:58;;;;;;;0.70;0.70;;;;;;;;;;5046148;28;20254;-62
2023/07/07 08:01:25;;;;;;;1.40;0.90;;;;;;;;;;5048289;28;20665;-61
2023/07/07 08:03:52;;;;;;;0.88;0.88;;;;;;;;;;5048224;28;20668;-63
2023/07/07 08:06:19;;;;;;;2.17;1.00;;;;;;;;;;5048345;28;20261;-60
2023/07/07 08:08:48;;;;;;;0.98;0.98;;;;;;;;;;5047475;28;20207;-62
2023/07/07 08:11:15;;;;;;;2.13;0.82;;;;;;;;;;5047963;28;20235;-61
2023/07/07 08:13:42;;;;;;;0.90;0.90;;;;;;;;;;5048014;28;20210;-62
2023/07/07 08:16:10;;;;;;;0.95;0.90;;;;;;;;;;5047658;28;20556;-61
2023/07/07 08:18:37;;;;;;;1.52;0.93;;;;;;;;;;5047279;28;20232;-59
2023/07/07 08:21:04;;;;;;;0.98;0.85;;;;;;;;;;5044694;28;20716;-59
2023/07/07 08:23:32;;;;;;;1.85;1.00;;;;;;;;;;5037416;28;20207;-61
2023/07/07 08:26:00;;;;;;;0.90;0.90;;;;;;;;;;5047605;28;20212;-74
2023/07/07 08:28:27;;;;;;;1.00;1.00;;;;;;;;;;5046279;28;20211;-62
2023/07/07 08:30:54;;;;;;;0.90;0.90;;;;;;;;;;5046024;28;20640;-62
2023/07/07 08:33:21;;;;;;;1.05;1.05;;;;;;;;;;5032179;28;20204;-61
2023/07/07 08:35:48;;;;;;;1.85;0.90;;;;;;;;;;5027774;28;20220;-59
2023/07/07 08:38:15;;;;;;;2.42;0.80;;;;;;;;;;5044269;28;20216;-59
2023/07/07 08:40:46;;;;;;;1.70;1.20;;;;;;;;;;5047273;28;20212;-60
2023/07/07 08:43:15;;;;;;;0.93;0.93;;;;;;;;;;5047387;28;20693;-60
2023/07/07 08:45:44;;;;;;;0.98;0.98;;;;;;;;;;5047673;28;20247;-60
2023/07/07 08:48:16;;;;;;;1.48;1.00;;;;;;;;;;5047707;28;20207;-60
2023/07/07 08:50:46;;;;;;;0.90;0.90;;;;;;;;;;5047231;28;20215;-60
2023/07/07 08:53:22;;;;;;;0.90;0.90;;;;;;;;;;5047517;28;20204;-60
2023/07/07 08:55:54;;;;;;;0.95;0.95;;;;;;;;;;5046547;28;20211;-60
2023/07/07 08:58:27;;;;;;;0.80;0.70;;;;;;;;;;5046255;28;20458;-61
2023/07/07 09:00:58;;;;;;;1.00;1.00;;;;;;;;;;5045424;28;20223;-60
2023/07/07 09:03:34;;;;;;;0.90;0.90;;;;;;;;;;5045150;28;20747;-61
2023/07/07 09:06:07;;;;;;;1.20;1.20;;;;;;;;;;5047148;28;20229;-61
2023/07/07 09:08:39;;;;;;;0.93;0.80;;;;;;;;;;5047387;28;20219;-60
2023/07/07 09:11:10;;;;;;;0.88;0.88;;;;;;;;;;5047165;28;20235;-60
2023/07/07 09:13:40;;;;;;;2.08;1.05;;;;;;;;;;5046981;28;20214;-60
2023/07/07 09:16:11;;;;;;;0.90;0.88;;;;;;;;;;5045782;28;20212;-60
2023/07/07 09:18:41;;;;;;;0.73;0.73;;;;;;;;;;5047277;28;20215;-61
2023/07/07 09:21:13;;;;;;;0.80;0.80;;;;;;;;;;5047634;28;20200;-60
2023/07/07 09:23:41;;;;;;;0.90;0.90;;;;;;;;;;5046765;28;20877;-60
2023/07/07 09:26:13;;;;;;;2.50;0.93;;;;;;;;;;5046332;28;20223;-60
2023/07/07 09:28:45;;;;;;;1.00;1.00;;;;;;;;;;5037919;28;20208;-60
2023/07/07 09:31:21;;;;;;;2.60;1.20;;;;;;;;;;5029092;28;20689;-61
2023/07/07 09:33:48;;;;;;;1.00;1.00;;;;;;;;;;5046753;28;20202;-61
2023/07/07 09:36:17;;;;;;;0.80;0.80;;;;;;;;;;5047169;28;20211;-61
2023/07/07 09:38:50;;;;;;;1.17;1.17;;;;;;;;;;5044136;28;20316;-60
2023/07/07 09:41:21;;;;;;;0.90;0.90;;;;;;;;;;5046981;28;20210;-60
2023/07/07 09:43:56;;;;;;;1.65;1.02;;;;;;;;;;5046181;28;20679;-61
2023/07/07 09:46:25;;;;;;;1.00;0.98;;;;;;;;;;5046721;28;20210;-61
2023/07/07 09:48:56;;;;;;;0.80;0.80;;;;;;;;;;5046758;28;20666;-60
2023/07/07 09:51:27;;;;;;;0.88;0.88;;;;;;;;;;5043873;28;20235;-61
2023/07/07 09:53:54;;;;;;;0.90;0.90;;;;;;;;;;5044494;28;20594;-61
2023/07/07 09:56:23;;;;;;;1.10;1.10;;;;;;;;;;5045024;28;20215;-60
2023/07/07 09:58:57;;;;;;;1.40;1.40;;;;;;;;;;5046266;28;20284;-61
2023/07/07 10:01:28;;;;;;;0.90;0.90;;;;;;;;;;5046926;28;20249;-61
2023/07/07 10:03:55;;;;;;;2.15;1.10;;;;;;;;;;5046412;28;20206;-61
2023/07/07 10:06:25;;;;;;;1.27;1.15;;;;;;;;;;5046898;28;20238;-61
2023/07/07 10:08:52;;;;;;;0.90;0.90;;;;;;;;;;5043356;28;20215;-61
2023/07/07 10:11:21;;;;;;;1.20;1.20;;;;;;;;;;5046772;28;20713;-61
2023/07/07 10:13:48;;;;;;;1.20;1.10;;;;;;;;;;5046763;28;20230;-61
2023/07/07 10:16:22;;;;;;;1.05;1.05;;;;;;;;;;5046886;28;20208;-61
2023/07/07 10:18:49;;;;;;;0.90;0.90;;;;;;;;;;5046785;28;20230;-61
2023/07/07 10:21:19;;;;;;;1.10;1.10;;;;;;;;;;5046272;28;20211;-61
2023/07/07 10:23:46;;;;;;;1.17;1.17;;;;;;;;;;5041679;28;20204;-61
2023/07/07 10:26:13;;;;;;;1.10;1.10;;;;;;;;;;5046721;28;20696;-61
2023/07/07 10:28:40;;;;;;;1.20;1.20;;;;;;;;;;5045926;28;21155;-60
2023/07/07 10:31:07;;;;;;;1.23;1.20;;;;;;;;;;5046526;28;20298;-61
2023/07/07 10:33:35;;;;;;;1.23;1.23;;;;;;;;;;5046339;28;20204;-61
2023/07/07 10:36:17;;;;;;;1.20;1.20;;;;;;;;;;5046126;28;20252;-61
2023/07/07 10:38:45;;;;;;;1.40;1.30;;;;;;;;;;5026605;28;20212;-61
2023/07/07 10:41:12;;;;;;;1.20;1.20;;;;;;;;;;5026362;28;20304;-60
2023/07/07 10:43:39;;;;;;;1.20;1.20;;;;;;;;;;5040168;28;20238;-61
2023/07/07 10:46:10;;;;;;;1.35;1.13;;;;;;;;;;5066076;28;20207;-60
2023/07/07 10:48:39;;;;;;;1.15;1.15;;;;;;;;;;5065550;28;20210;-61
2023/07/07 10:51:12;;;;;;;1.42;1.33;;;;;;;;;;5068340;28;20582;-61
2023/07/07 10:53:43;;;;;;;1.73;1.65;;;;;;;;;;5055339;28;20297;-61
2023/07/07 10:56:15;;;;;;;1.73;1.63;;;;;;;;;;5069050;28;20203;-60
2023/07/07 10:58:52;;;;;;;2.33;1.63;;;;;;;;;;5070021;28;20233;-60
2023/07/07 11:01:23;;;;;;;1.52;1.42;;;;;;;;;;5069938;28;20211;-61
2023/07/07 11:04:05;;;;;;;1.60;1.50;;;;;;;;;;5069613;28;20597;-60
2023/07/07 11:06:37;;;;;;;1.73;1.42;;;;;;;;;;5069640;28;20210;-60
2023/07/07 11:09:09;;;;;;;1.20;1.20;;;;;;;;;;5068830;28;20428;-61
2023/07/07 11:11:39;;;;;;;1.20;1.20;;;;;;;;;;5068646;28;20199;-60
2023/07/07 11:14:22;;;;;;;1.75;1.75;;;;;;;;;;5068612;28;20206;-60
2023/07/07 11:16:55;;;;;;;1.30;1.30;;;;;;;;;;5049766;28;20207;-60
2023/07/07 11:19:37;;;;;;;1.50;1.50;;;;;;;;;;5049791;28;20286;-60
2023/07/07 11:22:11;;;;;;;1.73;1.67;;;;;;;;;;5049801;28;20203;-60
2023/07/07 11:24:42;;;;;;;1.92;1.80;;;;;;;;;;5049820;28;20889;-59
2023/07/07 11:27:32;;;;;;;1.65;1.55;;;;;;;;;;5068028;28;20206;-60
2023/07/07 11:30:05;;;;;;;2.13;1.92;;;;;;;;;;5069113;28;20214;-60
2023/07/07 11:32:38;;;;;;;1.35;1.35;;;;;;;;;;5069173;28;20253;-59
2023/07/07 11:35:16;;;;;;;1.92;1.83;;;;;;;;;;5069640;28;20253;-60
2023/07/07 11:37:49;;;;;;;2.13;1.63;;;;;;;;;;5068923;28;20217;-60
2023/07/07 11:40:34;;;;;;;1.60;1.60;;;;;;;;;;5069452;28;20214;-60
2023/07/07 11:43:09;;;;;;;1.50;1.50;;;;;;;;;;5068438;28;20231;-60
2023/07/07 11:45:41;;;;;;;2.30;2.20;;;;;;;;;;5065389;28;20257;-61
2023/07/07 11:48:17;;;;;;;2.03;1.90;;;;;;;;;;5068493;28;20664;-61
2023/07/07 11:50:54;;;;;;;1.73;1.70;;;;;;;;;;5069441;28;20309;-60
2023/07/07 11:53:29;;;;;;;1.77;1.70;;;;;;;;;;5069509;28;20233;-58
2023/07/07 11:56:04;;;;;;;2.40;2.17;;;;;;;;;;5068867;28;20210;-59
2023/07/07 11:58:35;;;;;;;2.20;2.10;;;;;;;;;;5068436;28;20233;-59
2023/07/07 12:01:05;;;;;;;2.47;2.25;;;;;;;;;;5068760;28;20672;-58
2023/07/07 12:03:43;;;;;;;3.45;2.40;;;;;;;;;;5048995;28;20211;-58
2023/07/07 12:06:25;;;;;;;2.10;2.00;;;;;;;;;;5061298;28;20207;-58
2023/07/07 12:08:58;;;;;;;2.60;2.38;;;;;;;;;;5066881;28;20661;-59
2023/07/07 12:11:27;;;;;;;2.90;2.70;;;;;;;;;;5067879;28;20203;-61
2023/07/07 12:14:00;;;;;;;1.88;1.85;;;;;;;;;;5063296;28;20239;-59
2023/07/07 12:16:29;;;;;;;2.15;2.05;;;;;;;;;;5064303;28;20211;-58
2023/07/07 12:18:57;;;;;;;2.95;2.53;;;;;;;;;;5067904;28;20338;-60
2023/07/07 12:21:29;;;;;;;3.88;2.42;;;;;;;;;;5067516;28;20214;-58
2023/07/07 12:23:59;;;;;;;2.28;2.17;;;;;;;;;;5067301;28;20199;-60
2023/07/07 12:26:28;;;;;;;2.65;2.45;;;;;;;;;;5063681;28;20210;-58
2023/07/07 12:28:56;;;;;;;3.13;2.50;;;;;;;;;;5063517;28;20290;-59
2023/07/07 12:31:24;;;;;;;2.50;2.40;;;;;;;;;;5060885;28;20209;-59
2023/07/07 12:33:51;;;;;;;3.78;2.65;;;;;;;;;;5063627;28;20231;-58
2023/07/07 12:36:19;;;;;;;2.63;2.42;;;;;;;;;;5067187;28;20217;-60
2023/07/07 12:38:51;;;;;;;3.70;2.72;;;;;;;;;;5067581;28;20213;-59
2023/07/07 12:41:21;;;;;;;5.22;3.33;;;;;;;;;;5067272;28;20264;-59
2023/07/07 12:43:52;;;;;;;2.92;2.72;;;;;;;;;;5066609;28;20800;-64
2023/07/07 12:46:21;;;;;;;3.20;2.90;;;;;;;;;;5066988;28;20214;-63
2023/07/07 12:48:48;;;;;;;4.32;2.80;;;;;;;;;;5066688;28;20289;-65
2023/07/07 12:51:18;;;;;;;2.70;2.50;;;;;;;;;;5067080;28;20218;-64
2023/07/07 12:53:47;;;;;;;5.30;2.38;;;;;;;;;;5047406;28;20322;-63
2023/07/07 12:56:18;;;;;;;3.22;2.90;;;;;;;;;;5047074;28;20207;-64
2023/07/07 12:58:47;;;;;;;3.05;2.72;;;;;;;;;;5047170;28;20550;-63
2023/07/07 13:01:34;;;;;;;3.42;2.97;;;;;;;;;;5047081;28;20626;-63
2023/07/07 13:04:02;;;;;;;4.03;3.65;;;;;;;;;;5047113;28;20211;-64
2023/07/07 13:06:34;;;;;;;3.53;3.17;;;;;;;;;;5046761;28;20712;-64
2023/07/07 13:09:18;;;;;;;3.00;2.78;;;;;;;;;;5051418;28;20866;-65
2023/07/07 13:11:47;;;;;;;3.13;2.92;;;;;;;;;;5065736;28;20207;-65
2023/07/07 13:14:41;;;;;;;4.03;2.70;;;;;;;;;;5066591;28;20667;-64
2023/07/07 13:17:11;;;;;;;3.67;3.28;;;;;;;;;;5017811;28;20213;-65
2023/07/07 13:19:38;;;;;;;5.20;2.80;;;;;;;;;;5066369;28;20770;-64
2023/07/07 13:22:10;;;;;;;2.60;2.50;;;;;;;;;;5065509;28;20198;-64
2023/07/07 13:24:41;;;;;;;6.65;3.08;;;;;;;;;;5064707;28;20203;-60
2023/07/07 13:27:15;;;;;;;4.88;2.95;;;;;;;;;;5066458;28;20211;-59
2023/07/07 13:29:42;;;;;;;3.83;3.42;;;;;;;;;;5066174;28;20234;-59
2023/07/07 13:32:22;;;;;;;3.10;2.85;;;;;;;;;;5066467;28;20206;-59
2023/07/07 13:34:49;;;;;;;2.85;2.65;;;;;;;;;;5056518;28;20206;-59
2023/07/07 13:37:17;;;;;;;9.25;3.03;;;;;;;;;;5064351;28;20206;-58
2023/07/07 13:39:44;;;;;;;3.83;3.22;;;;;;;;;;5066562;28;20205;-59
2023/07/07 13:42:19;;;;;;;3.97;3.38;;;;;;;;;;5064614;28;20234;-59
2023/07/07 13:44:46;;;;;;;4.03;3.47;;;;;;;;;;5062671;28;20233;-59
2023/07/07 13:47:16;;;;;;;3.38;3.08;;;;;;;;;;5056162;28;20214;-59
2023/07/07 13:49:43;;;;;;;3.38;3.08;;;;;;;;;;5056220;28;20215;-59
2023/07/07 13:52:15;;;;;;;4.85;2.90;;;;;;;;;;5056873;28;20350;-59
2023/07/07 13:54:42;;;;;;;3.45;3.10;;;;;;;;;;5064503;28;20307;-58
2023/07/07 13:57:11;;;;;;;3.40;3.10;;;;;;;;;;5066564;28;20218;-58
2023/07/07 13:59:40;;;;;;;3.38;3.08;;;;;;;;;;5066728;28;20209;-59
2023/07/07 14:02:14;;;;;;;3.08;2.80;;;;;;;;;;5049011;28;20686;-58
2023/07/07 14:04:42;;;;;;;6.22;3.63;;;;;;;;;;5046893;28;20316;-60
2023/07/07 14:07:15;;;;;;;5.82;3.30;;;;;;;;;;5049372;28;20529;-60
2023/07/07 14:09:43;;;;;;;3.53;3.00;;;;;;;;;;5064956;28;20236;-59
2023/07/07 14:12:12;;;;;;;5.22;3.08;;;;;;;;;;5066342;28;20213;-59
2023/07/07 14:14:42;;;;;;;3.05;2.85;;;;;;;;;;5050032;28;20339;-59
2023/07/07 14:17:13;;;;;;;3.88;2.97;;;;;;;;;;5046092;28;20717;-59
2023/07/07 14:19:47;;;;;;;3.13;2.92;;;;;;;;;;5046148;28;20211;-59
2023/07/07 14:22:15;;;;;;;3.75;2.72;;;;;;;;;;5058198;28;20210;-59
2023/07/07 14:24:42;;;;;;;3.33;3.03;;;;;;;;;;5066069;28;20206;-58
2023/07/07 14:27:13;;;;;;;3.13;2.83;;;;;;;;;;5059586;28;20226;-59
2023/07/07 14:29:43;;;;;;;3.05;2.88;;;;;;;;;;5049932;28;20207;-59
2023/07/07 14:32:14;;;;;;;4.50;2.92;;;;;;;;;;5067159;28;20221;-59
2023/07/07 14:34:45;;;;;;;3.75;3.45;;;;;;;;;;5069625;28;20720;-59
2023/07/07 14:37:18;;;;;;;4.45;3.83;;;;;;;;;;5069496;28;20213;-59
2023/07/07 14:39:48;;;;;;;4.78;4.15;;;;;;;;;;5069618;28;20529;-60
2023/07/07 14:42:19;;;;;;;3.40;3.10;;;;;;;;;;5069106;28;20254;-59
2023/07/07 14:44:48;;;;;;;3.13;2.92;;;;;;;;;;5069513;28;20257;-59
2023/07/07 14:47:17;;;;;;;4.68;3.45;;;;;;;;;;5069458;28;20214;-59
2023/07/07 14:49:45;;;;;;;3.97;3.20;;;;;;;;;;5069381;28;20210;-59
2023/07/07 14:52:16;;;;;;;6.75;4.53;;;;;;;;;;5069092;28;20214;-59
2023/07/07 14:54:43;;;;;;;6.93;3.65;;;;;;;;;;5068685;28;20230;-58